createdAt,value
2023-04-15T00:01:37.314Z,1.42
2023-04-15T00:04:05.146Z,1.50
2023-04-15T00:06:32.062Z,2.13
2023-04-15T00:08:59.081Z,1.50
2023-04-15T00:11:26.156Z,1.30
2023-04-15T00:13:53.100Z,1.08
2023-04-15T00:16:19.953Z,0.80
2023-04-15T00:18:47.163Z,0.83
2023-04-15T00:21:14.268Z,0.90
2023-04-15T00:23:41.162Z,0.80
2023-04-15T00:26:08.633Z,1.00
2023-04-15T00:28:35.497Z,0.70
2023-04-15T00:31:02.432Z,0.80
2023-04-15T00:33:29.275Z,0.57
2023-04-15T00:35:56.086Z,0.57
2023-04-15T00:38:23.191Z,0.60
2023-04-15T00:40:50.514Z,0.82
2023-04-15T00:43:17.675Z,0.50
2023-04-15T00:45:44.596Z,0.60
2023-04-15T00:48:12.165Z,0.70
2023-04-15T00:50:39.237Z,0.50
2023-04-15T00:53:06.195Z,0.73
2023-04-15T00:55:33.036Z,0.50
2023-04-15T00:57:59.907Z,0.50
2023-04-15T01:00:27.280Z,0.55
2023-04-15T19:55:25.417Z,1.20
2023-04-15T19:57:52.225Z,1.40
2023-04-15T20:00:19.086Z,1.08
2023-04-15T20:02:46.497Z,1.13
2023-04-15T20:05:13.920Z,1.33
2023-04-15T20:07:42.596Z,1.42
2023-04-15T20:10:12.997Z,1.88
2023-04-15T20:12:50.394Z,2.80
2023-04-15T20:15:19.857Z,3.25
2023-04-15T20:17:47.971Z,2.85
2023-04-15T20:20:15.058Z,2.85
2023-04-15T20:22:41.999Z,2.90
2023-04-15T20:25:09.396Z,2.72
2023-04-15T20:27:37.244Z,2.20
2023-04-15T20:30:05.125Z,1.98
2023-04-15T20:32:36.012Z,1.50
2023-04-15T20:35:05.601Z,1.60
2023-04-15T20:37:33.828Z,1.80
2023-04-15T20:40:01.406Z,1.80
2023-04-15T20:42:32.282Z,2.22
2023-04-15T20:44:59.220Z,2.05
2023-04-15T20:47:26.377Z,2.58
2023-04-15T20:49:54.125Z,2.28
2023-04-15T20:52:21.193Z,1.97
2023-04-15T20:54:48.045Z,1.92
2023-04-15T20:57:14.881Z,1.75
2023-04-15T20:59:41.711Z,1.30
2023-04-15T21:02:08.863Z,1.67
2023-04-15T21:04:37.968Z,1.98
2023-04-15T21:07:04.888Z,2.35
2023-04-15T21:09:31.796Z,2.13
2023-04-15T21:12:01.635Z,2.70
2023-04-15T21:14:29.219Z,6.22
2023-04-15T21:16:58.268Z,4.80
2023-04-15T21:19:25.244Z,3.73
2023-04-15T21:21:52.633Z,2.75
2023-04-15T21:24:19.776Z,2.92
2023-04-15T21:26:46.619Z,2.77
2023-04-15T21:29:13.703Z,2.30
2023-04-15T21:31:40.930Z,2.13
2023-04-15T21:34:08.100Z,2.50
2023-04-15T21:36:35.363Z,2.67
2023-04-15T21:39:02.244Z,2.70
2023-04-15T21:41:29.260Z,2.47
2023-04-15T21:43:56.129Z,2.30
2023-04-15T21:46:25.575Z,2.13
2023-04-15T21:48:59.446Z,2.55
2023-04-15T21:51:26.683Z,2.55
2023-04-15T21:53:53.561Z,2.33
2023-04-15T21:56:22.656Z,2.70
2023-04-15T21:58:50.117Z,2.30
2023-04-15T22:01:17.476Z,2.65
2023-04-15T22:03:46.105Z,9.20
2023-04-15T22:06:13.830Z,42.13
2023-04-15T22:08:54.952Z,21.92
2023-04-15T22:11:27.162Z,15.55
2023-04-15T22:13:55.198Z,4.72
2023-04-15T22:16:22.248Z,1.95
2023-04-15T22:18:49.224Z,1.23
2023-04-15T22:21:16.369Z,1.00
2023-04-15T22:23:47.535Z,1.40
2023-04-15T22:26:14.460Z,1.20
2023-04-15T22:28:41.824Z,1.40
2023-04-15T22:31:08.764Z,1.88
2023-04-15T22:33:35.753Z,2.78
2023-04-15T22:36:02.576Z,3.33
2023-04-15T22:38:29.405Z,4.53
2023-04-15T22:40:56.462Z,4.50
2023-04-15T22:43:23.287Z,4.95
2023-04-15T22:45:51.467Z,4.13
2023-04-15T22:48:18.979Z,3.70
2023-04-15T22:50:46.130Z,4.55
2023-04-15T22:53:13.187Z,3.43
2023-04-15T22:55:40.055Z,2.53
2023-04-15T22:58:06.846Z,2.60
2023-04-15T23:00:33.638Z,3.10
2023-04-15T23:03:00.716Z,6.50
2023-04-15T23:05:27.912Z,3.33
2023-04-15T23:07:54.730Z,9.25
2023-04-15T23:10:21.648Z,3.30
2023-04-15T23:12:48.460Z,2.67
2023-04-15T23:15:15.799Z,2.63
2023-04-15T23:17:43.378Z,2.97
2023-04-15T23:20:11.343Z,3.07
2023-04-15T23:22:38.628Z,2.58
2023-04-15T23:25:06.202Z,2.45
2023-04-15T23:27:33.593Z,2.45
2023-04-15T23:30:00.461Z,2.20
2023-04-15T23:32:27.718Z,2.38
2023-04-15T23:34:54.533Z,2.30
2023-04-15T23:37:21.392Z,1.77
2023-04-15T23:39:48.191Z,1.77
2023-04-15T23:42:17.433Z,2.10
2023-04-15T23:44:44.934Z,1.60
2023-04-15T23:47:11.805Z,2.10
2023-04-15T23:49:40.924Z,2.20
2023-04-15T23:52:08.029Z,2.92
2023-04-15T23:54:35.112Z,2.22
2023-04-15T23:57:03.505Z,1.70
2023-04-15T23:59:30.403Z,2.33
